sensor_id;sensor_type;location;lat;lon;timestamp;P1;durP1;ratioP1;P2;durP2;ratioP2
15921;SDS011;8060;50.948;3.146;2023-04-03T08:29:25;7.80;;;3.93;;
15921;SDS011;8060;50.948;3.146;2023-04-03T08:31:53;5.13;;;3.73;;
15921;SDS011;8060;50.948;3.146;2023-04-03T08:34:21;6.10;;;4.10;;
15921;SDS011;8060;50.948;3.146;2023-04-03T08:36:50;7.27;;;4.03;;
15921;SDS011;8060;50.948;3.146;2023-04-03T08:39:18;7.67;;;4.17;;
15921;SDS011;8060;50.948;3.146;2023-04-03T08:41:46;9.70;;;4.97;;
15921;SDS011;8060;50.948;3.146;2023-04-03T08:44:17;10.53;;;5.60;;
15921;SDS011;8060;50.948;3.146;2023-04-03T08:46:59;8.33;;;6.10;;
15921;SDS011;8060;50.948;3.146;2023-04-03T08:49:32;11.53;;;6.30;;
15921;SDS011;8060;50.948;3.146;2023-04-03T08:52:08;12.13;;;5.90;;
15921;SDS011;8060;50.948;3.146;2023-04-03T08:54:44;10.63;;;6.80;;
15921;SDS011;8060;50.948;3.146;2023-04-03T08:57:17;13.00;;;7.20;;
15921;SDS011;8060;50.948;3.146;2023-04-03T08:59:54;13.53;;;7.83;;
15921;SDS011;8060;50.948;3.146;2023-04-03T09:02:25;17.73;;;12.20;;
15921;SDS011;8060;50.948;3.146;2023-04-03T09:04:59;17.60;;;8.60;;
15921;SDS011;8060;50.948;3.146;2023-04-03T09:07:32;13.20;;;8.07;;
15921;SDS011;8060;50.948;3.146;2023-04-03T09:10:06;14.40;;;8.53;;
15921;SDS011;8060;50.948;3.146;2023-04-03T09:12:37;10.87;;;8.30;;
15921;SDS011;8060;50.948;3.146;2023-04-03T09:15:10;16.60;;;7.47;;
15921;SDS011;8060;50.948;3.146;2023-04-03T09:18:04;14.43;;;7.23;;
15921;SDS011;8060;50.948;3.146;2023-04-03T09:20:39;11.80;;;7.47;;
15921;SDS011;8060;50.948;3.146;2023-04-03T09:23:14;9.60;;;6.80;;
15921;SDS011;8060;50.948;3.146;2023-04-03T09:25:47;12.30;;;7.30;;
15921;SDS011;8060;50.948;3.146;2023-04-03T09:28:16;15.03;;;8.00;;
15921;SDS011;8060;50.948;3.146;2023-04-03T09:30:44;11.57;;;7.27;;
15921;SDS011;8060;50.948;3.146;2023-04-03T09:33:14;10.80;;;7.27;;
15921;SDS011;8060;50.948;3.146;2023-04-03T09:35:44;12.53;;;7.27;;
15921;SDS011;8060;50.948;3.146;2023-04-03T09:38:16;11.87;;;7.63;;
15921;SDS011;8060;50.948;3.146;2023-04-03T09:40:46;13.43;;;7.60;;
15921;SDS011;8060;50.948;3.146;2023-04-03T09:43:24;10.37;;;6.33;;
15921;SDS011;8060;50.948;3.146;2023-04-03T09:45:55;11.13;;;6.57;;
15921;SDS011;8060;50.948;3.146;2023-04-03T09:48:55;14.03;;;6.10;;
15921;SDS011;8060;50.948;3.146;2023-04-03T09:51:35;11.53;;;6.77;;
15921;SDS011;8060;50.948;3.146;2023-04-03T09:54:24;9.50;;;6.43;;
15921;SDS011;8060;50.948;3.146;2023-04-03T09:56:54;14.27;;;5.80;;
15921;SDS011;8060;50.948;3.146;2023-04-03T09:59:25;10.00;;;6.33;;
15921;SDS011;8060;50.948;3.146;2023-04-03T10:01:58;9.37;;;6.10;;
15921;SDS011;8060;50.948;3.146;2023-04-03T10:04:36;9.30;;;5.90;;
15921;SDS011;8060;50.948;3.146;2023-04-03T10:10:00;9.57;;;5.73;;
15921;SDS011;8060;50.948;3.146;2023-04-03T10:12:30;10.20;;;5.87;;
15921;SDS011;8060;50.948;3.146;2023-04-03T10:14:59;9.73;;;6.27;;
15921;SDS011;8060;50.948;3.146;2023-04-03T10:17:34;8.30;;;5.77;;
15921;SDS011;8060;50.948;3.146;2023-04-03T10:20:17;9.03;;;4.60;;
15921;SDS011;8060;50.948;3.146;2023-04-03T10:23:03;6.57;;;4.50;;
15921;SDS011;8060;50.948;3.146;2023-04-03T10:25:51;7.37;;;4.27;;
15921;SDS011;8060;50.948;3.146;2023-04-03T10:28:31;7.23;;;3.57;;
15921;SDS011;8060;50.948;3.146;2023-04-03T10:31:09;8.77;;;3.60;;
15921;SDS011;8060;50.948;3.146;2023-04-03T10:33:48;6.73;;;3.50;;
15921;SDS011;8060;50.948;3.146;2023-04-03T10:36:27;10.07;;;3.83;;
15921;SDS011;8060;50.948;3.146;2023-04-03T10:39:08;9.20;;;3.93;;
15921;SDS011;8060;50.948;3.146;2023-04-03T10:41:55;7.17;;;4.03;;
15921;SDS011;8060;50.948;3.146;2023-04-03T10:44:45;8.23;;;4.00;;
15921;SDS011;8060;50.948;3.146;2023-04-03T10:47:27;6.33;;;3.30;;
15921;SDS011;8060;50.948;3.146;2023-04-03T10:50:06;10.13;;;4.27;;
15921;SDS011;8060;50.948;3.146;2023-04-03T10:52:52;8.67;;;4.53;;
15921;SDS011;8060;50.948;3.146;2023-04-03T10:55:30;15.57;;;4.97;;
15921;SDS011;8060;50.948;3.146;2023-04-03T10:58:03;8.03;;;4.53;;
15921;SDS011;8060;50.948;3.146;2023-04-03T11:00:35;8.23;;;3.77;;
15921;SDS011;8060;50.948;3.146;2023-04-03T11:03:08;11.97;;;4.47;;
15921;SDS011;8060;50.948;3.146;2023-04-03T11:05:42;8.40;;;4.30;;
15921;SDS011;8060;50.948;3.146;2023-04-03T11:08:15;9.03;;;3.30;;
15921;SDS011;8060;50.948;3.146;2023-04-03T11:10:53;5.93;;;3.30;;
15921;SDS011;8060;50.948;3.146;2023-04-03T11:13:26;7.93;;;3.20;;
15921;SDS011;8060;50.948;3.146;2023-04-03T11:16:00;7.10;;;3.23;;
15921;SDS011;8060;50.948;3.146;2023-04-03T11:18:32;7.03;;;3.00;;
15921;SDS011;8060;50.948;3.146;2023-04-03T11:21:06;4.90;;;3.20;;
15921;SDS011;8060;50.948;3.146;2023-04-03T11:23:40;6.10;;;2.87;;
15921;SDS011;8060;50.948;3.146;2023-04-03T11:26:16;5.27;;;2.77;;
15921;SDS011;8060;50.948;3.146;2023-04-03T11:28:51;11.10;;;2.90;;
15921;SDS011;8060;50.948;3.146;2023-04-03T11:31:26;6.50;;;2.60;;
15921;SDS011;8060;50.948;3.146;2023-04-03T11:34:06;7.50;;;2.63;;
15921;SDS011;8060;50.948;3.146;2023-04-03T11:36:45;4.73;;;2.57;;
15921;SDS011;8060;50.948;3.146;2023-04-03T11:39:20;9.30;;;3.10;;
15921;SDS011;8060;50.948;3.146;2023-04-03T11:41:51;8.03;;;3.43;;
15921;SDS011;8060;50.948;3.146;2023-04-03T11:44:36;7.00;;;2.70;;
15921;SDS011;8060;50.948;3.146;2023-04-03T11:47:06;8.47;;;3.13;;
15921;SDS011;8060;50.948;3.146;2023-04-03T11:55:55;8.17;;;2.50;;
15921;SDS011;8060;50.948;3.146;2023-04-03T11:58:25;5.87;;;2.60;;
15921;SDS011;8060;50.948;3.146;2023-04-03T12:00:56;8.43;;;3.20;;
15921;SDS011;8060;50.948;3.146;2023-04-03T12:03:34;5.00;;;2.67;;
15921;SDS011;8060;50.948;3.146;2023-04-03T12:09:28;3.70;;;2.37;;
15921;SDS011;8060;50.948;3.146;2023-04-03T12:22:04;6.67;;;2.80;;
15921;SDS011;8060;50.948;3.146;2023-04-03T12:24:38;7.33;;;2.77;;
15921;SDS011;8060;50.948;3.146;2023-04-03T12:35:51;4.87;;;2.30;;
15921;SDS011;8060;50.948;3.146;2023-04-03T12:38:36;7.43;;;2.10;;
15921;SDS011;8060;50.948;3.146;2023-04-03T12:41:21;6.00;;;1.70;;
15921;SDS011;8060;50.948;3.146;2023-04-03T12:44:07;6.33;;;2.20;;
15921;SDS011;8060;50.948;3.146;2023-04-03T12:46:46;6.57;;;1.70;;
15921;SDS011;8060;50.948;3.146;2023-04-03T12:49:22;3.37;;;1.83;;
15921;SDS011;8060;50.948;3.146;2023-04-03T12:51:59;3.83;;;2.00;;
15921;SDS011;8060;50.948;3.146;2023-04-03T12:54:30;3.93;;;1.90;;
15921;SDS011;8060;50.948;3.146;2023-04-03T12:57:08;4.27;;;1.80;;
15921;SDS011;8060;50.948;3.146;2023-04-03T12:59:38;7.70;;;1.67;;
15921;SDS011;8060;50.948;3.146;2023-04-03T13:02:12;5.20;;;1.57;;
15921;SDS011;8060;50.948;3.146;2023-04-03T13:04:49;4.60;;;1.80;;
15921;SDS011;8060;50.948;3.146;2023-04-03T13:07:21;4.43;;;1.43;;
15921;SDS011;8060;50.948;3.146;2023-04-03T13:09:55;6.13;;;1.77;;
15921;SDS011;8060;50.948;3.146;2023-04-03T13:12:28;2.70;;;1.50;;
15921;SDS011;8060;50.948;3.146;2023-04-03T13:14:58;6.90;;;1.73;;
15921;SDS011;8060;50.948;3.146;2023-04-03T13:17:27;4.50;;;1.50;;
15921;SDS011;8060;50.948;3.146;2023-04-03T13:19:55;4.33;;;1.83;;
15921;SDS011;8060;50.948;3.146;2023-04-03T13:22:40;6.50;;;1.43;;
15921;SDS011;8060;50.948;3.146;2023-04-03T13:25:14;3.27;;;1.60;;
15921;SDS011;8060;50.948;3.146;2023-04-03T13:27:44;3.70;;;1.60;;
15921;SDS011;8060;50.948;3.146;2023-04-03T13:30:20;11.33;;;1.80;;
15921;SDS011;8060;50.948;3.146;2023-04-03T13:32:53;21.17;;;2.47;;
15921;SDS011;8060;50.948;3.146;2023-04-03T13:35:31;4.77;;;2.10;;
15921;SDS011;8060;50.948;3.146;2023-04-03T13:38:06;7.93;;;2.07;;
15921;SDS011;8060;50.948;3.146;2023-04-03T13:40:48;5.67;;;2.00;;
15921;SDS011;8060;50.948;3.146;2023-04-03T13:43:19;4.83;;;1.80;;
15921;SDS011;8060;50.948;3.146;2023-04-03T13:45:56;3.80;;;2.13;;
15921;SDS011;8060;50.948;3.146;2023-04-03T13:48:26;4.47;;;2.10;;
15921;SDS011;8060;50.948;3.146;2023-04-03T13:51:02;5.83;;;2.40;;
15921;SDS011;8060;50.948;3.146;2023-04-03T13:53:40;4.77;;;1.90;;
15921;SDS011;8060;50.948;3.146;2023-04-03T13:56:16;3.90;;;2.27;;
15921;SDS011;8060;50.948;3.146;2023-04-03T14:01:50;4.73;;;1.97;;
15921;SDS011;8060;50.948;3.146;2023-04-03T14:04:21;4.70;;;2.10;;
15921;SDS011;8060;50.948;3.146;2023-04-03T14:06:50;5.13;;;2.10;;
15921;SDS011;8060;50.948;3.146;2023-04-03T14:09:21;8.17;;;2.10;;
15921;SDS011;8060;50.948;3.146;2023-04-03T14:11:52;3.50;;;1.90;;
15921;SDS011;8060;50.948;3.146;2023-04-03T14:14:22;4.97;;;2.20;;
15921;SDS011;8060;50.948;3.146;2023-04-03T14:16:59;5.33;;;2.33;;
15921;SDS011;8060;50.948;3.146;2023-04-03T14:19:29;7.73;;;2.53;;
15921;SDS011;8060;50.948;3.146;2023-04-03T14:22:00;10.70;;;3.10;;
15921;SDS011;8060;50.948;3.146;2023-04-03T14:24:35;5.37;;;2.20;;
15921;SDS011;8060;50.948;3.146;2023-04-03T14:27:05;5.83;;;2.10;;
15921;SDS011;8060;50.948;3.146;2023-04-03T14:29:43;6.63;;;2.07;;
15921;SDS011;8060;50.948;3.146;2023-04-03T14:32:12;5.43;;;2.40;;
15921;SDS011;8060;50.948;3.146;2023-04-03T14:34:41;10.00;;;2.87;;
15921;SDS011;8060;50.948;3.146;2023-04-03T14:37:11;8.50;;;2.10;;
15921;SDS011;8060;50.948;3.146;2023-04-03T14:39:41;21.73;;;3.23;;
15921;SDS011;8060;50.948;3.146;2023-04-03T14:42:11;8.47;;;2.20;;
15921;SDS011;8060;50.948;3.146;2023-04-03T14:44:41;6.10;;;2.13;;
15921;SDS011;8060;50.948;3.146;2023-04-03T14:47:10;3.47;;;1.80;;
15921;SDS011;8060;50.948;3.146;2023-04-03T14:49:56;3.63;;;2.07;;
15921;SDS011;8060;50.948;3.146;2023-04-03T14:52:25;7.13;;;2.30;;
15921;SDS011;8060;50.948;3.146;2023-04-03T14:54:56;4.67;;;2.00;;
15921;SDS011;8060;50.948;3.146;2023-04-03T14:57:27;5.03;;;2.40;;
15921;SDS011;8060;50.948;3.146;2023-04-03T14:59:57;8.03;;;2.30;;
15921;SDS011;8060;50.948;3.146;2023-04-03T15:02:27;3.83;;;1.97;;
15921;SDS011;8060;50.948;3.146;2023-04-03T15:04:58;3.43;;;1.70;;
15921;SDS011;8060;50.948;3.146;2023-04-03T15:07:31;5.53;;;1.70;;
15921;SDS011;8060;50.948;3.146;2023-04-03T15:10:09;5.30;;;2.10;;
15921;SDS011;8060;50.948;3.146;2023-04-03T15:12:44;3.40;;;1.80;;
15921;SDS011;8060;50.948;3.146;2023-04-03T15:15:13;6.43;;;2.27;;
15921;SDS011;8060;50.948;3.146;2023-04-03T15:17:43;4.00;;;2.00;;
15921;SDS011;8060;50.948;3.146;2023-04-03T15:20:14;5.30;;;2.03;;
15921;SDS011;8060;50.948;3.146;2023-04-03T15:22:44;6.20;;;1.90;;
15921;SDS011;8060;50.948;3.146;2023-04-03T15:25:13;4.07;;;2.10;;
15921;SDS011;8060;50.948;3.146;2023-04-03T15:27:42;3.53;;;1.77;;
15921;SDS011;8060;50.948;3.146;2023-04-03T15:30:13;4.73;;;1.80;;
15921;SDS011;8060;50.948;3.146;2023-04-03T15:32:43;6.13;;;2.00;;
15921;SDS011;8060;50.948;3.146;2023-04-03T15:35:11;6.97;;;2.23;;
15921;SDS011;8060;50.948;3.146;2023-04-03T15:37:39;3.90;;;1.93;;
15921;SDS011;8060;50.948;3.146;2023-04-03T15:40:08;4.43;;;1.80;;
15921;SDS011;8060;50.948;3.146;2023-04-03T15:42:38;5.23;;;2.10;;
15921;SDS011;8060;50.948;3.146;2023-04-03T15:45:07;5.00;;;2.33;;
15921;SDS011;8060;50.948;3.146;2023-04-03T15:47:36;3.87;;;1.80;;
15921;SDS011;8060;50.948;3.146;2023-04-03T15:50:04;3.67;;;1.80;;
15921;SDS011;8060;50.948;3.146;2023-04-03T15:52:34;7.30;;;2.20;;
15921;SDS011;8060;50.948;3.146;2023-04-03T15:55:03;6.77;;;1.87;;
15921;SDS011;8060;50.948;3.146;2023-04-03T15:57:32;5.37;;;2.60;;
15921;SDS011;8060;50.948;3.146;2023-04-03T16:00:07;6.57;;;2.30;;
15921;SDS011;8060;50.948;3.146;2023-04-03T16:02:36;2.93;;;1.77;;
15921;SDS011;8060;50.948;3.146;2023-04-03T16:05:04;3.10;;;1.90;;
15921;SDS011;8060;50.948;3.146;2023-04-03T16:07:33;6.60;;;1.83;;
15921;SDS011;8060;50.948;3.146;2023-04-03T16:10:02;6.20;;;2.20;;
15921;SDS011;8060;50.948;3.146;2023-04-03T16:12:31;5.60;;;1.97;;
15921;SDS011;8060;50.948;3.146;2023-04-03T16:14:59;10.07;;;2.90;;
15921;SDS011;8060;50.948;3.146;2023-04-03T16:17:28;3.87;;;2.00;;
15921;SDS011;8060;50.948;3.146;2023-04-03T16:19:57;4.67;;;2.00;;
15921;SDS011;8060;50.948;3.146;2023-04-03T16:22:26;3.53;;;2.10;;
15921;SDS011;8060;50.948;3.146;2023-04-03T16:24:56;3.53;;;1.87;;
15921;SDS011;8060;50.948;3.146;2023-04-03T16:27:24;6.43;;;2.00;;
15921;SDS011;8060;50.948;3.146;2023-04-03T16:29:53;3.43;;;1.70;;
15921;SDS011;8060;50.948;3.146;2023-04-03T16:32:22;3.73;;;1.90;;
15921;SDS011;8060;50.948;3.146;2023-04-03T16:34:54;5.03;;;1.60;;
15921;SDS011;8060;50.948;3.146;2023-04-03T16:37:23;3.67;;;1.97;;
15921;SDS011;8060;50.948;3.146;2023-04-03T16:39:53;3.67;;;2.10;;
15921;SDS011;8060;50.948;3.146;2023-04-03T16:42:21;2.50;;;1.60;;
15921;SDS011;8060;50.948;3.146;2023-04-03T16:44:49;4.43;;;1.83;;
15921;SDS011;8060;50.948;3.146;2023-04-03T16:47:19;4.93;;;1.70;;
15921;SDS011;8060;50.948;3.146;2023-04-03T16:49:51;4.00;;;1.93;;
15921;SDS011;8060;50.948;3.146;2023-04-03T16:52:21;3.07;;;2.00;;
15921;SDS011;8060;50.948;3.146;2023-04-03T16:54:49;4.37;;;2.07;;
15921;SDS011;8060;50.948;3.146;2023-04-03T16:57:21;7.17;;;1.67;;
15921;SDS011;8060;50.948;3.146;2023-04-03T16:59:51;5.70;;;1.93;;
15921;SDS011;8060;50.948;3.146;2023-04-03T17:02:20;3.63;;;1.63;;
15921;SDS011;8060;50.948;3.146;2023-04-03T17:04:51;3.47;;;1.77;;
15921;SDS011;8060;50.948;3.146;2023-04-03T17:07:19;3.53;;;2.10;;
15921;SDS011;8060;50.948;3.146;2023-04-03T17:09:50;3.80;;;1.77;;
15921;SDS011;8060;50.948;3.146;2023-04-03T17:12:20;7.17;;;1.80;;
15921;SDS011;8060;50.948;3.146;2023-04-03T17:14:48;4.90;;;1.77;;
15921;SDS011;8060;50.948;3.146;2023-04-03T17:17:18;4.77;;;2.10;;
15921;SDS011;8060;50.948;3.146;2023-04-03T17:19:50;2.67;;;1.70;;
15921;SDS011;8060;50.948;3.146;2023-04-03T17:22:21;3.83;;;1.73;;
15921;SDS011;8060;50.948;3.146;2023-04-03T17:24:49;3.60;;;1.93;;
15921;SDS011;8060;50.948;3.146;2023-04-03T17:27:17;6.80;;;1.67;;
15921;SDS011;8060;50.948;3.146;2023-04-03T17:29:46;3.80;;;2.00;;
15921;SDS011;8060;50.948;3.146;2023-04-03T17:32:14;5.13;;;1.93;;
15921;SDS011;8060;50.948;3.146;2023-04-03T17:34:42;5.07;;;1.70;;
15921;SDS011;8060;50.948;3.146;2023-04-03T17:37:12;3.37;;;1.80;;
15921;SDS011;8060;50.948;3.146;2023-04-03T17:39:42;4.77;;;1.73;;
15921;SDS011;8060;50.948;3.146;2023-04-03T17:42:12;4.37;;;1.90;;
15921;SDS011;8060;50.948;3.146;2023-04-03T17:44:40;4.50;;;2.07;;
15921;SDS011;8060;50.948;3.146;2023-04-03T17:47:08;3.40;;;1.63;;
15921;SDS011;8060;50.948;3.146;2023-04-03T17:49:36;3.33;;;2.00;;
